sensor_id;sensor_type;location;lat;lon;timestamp;pressure;altitude;pressure_sealevel;temperature;humidity
53300;BME280;39187;48.476;8.310;2024-02-26T00:01:07;89382.44;;;3.96;67.48
53300;BME280;39187;48.476;8.310;2024-02-26T00:03:33;89373.47;;;3.94;67.95
53300;BME280;39187;48.476;8.310;2024-02-26T00:06:02;89381.78;;;3.92;68.16
53300;BME280;39187;48.476;8.310;2024-02-26T00:08:28;89387.97;;;3.86;66.63
53300;BME280;39187;48.476;8.310;2024-02-26T00:10:53;89384.09;;;3.90;66.93
53300;BME280;39187;48.476;8.310;2024-02-26T00:13:19;89395.84;;;3.86;67.26
53300;BME280;39187;48.476;8.310;2024-02-26T00:15:45;89385.03;;;3.84;72.21
53300;BME280;39187;48.476;8.310;2024-02-26T00:18:11;89392.66;;;3.78;72.67
53300;BME280;39187;48.476;8.310;2024-02-26T00:20:37;89410.69;;;3.80;74.95
53300;BME280;39187;48.476;8.310;2024-02-26T00:23:02;89398.22;;;3.68;81.46
53300;BME280;39187;48.476;8.310;2024-02-26T00:25:28;89397.66;;;3.60;86.53
53300;BME280;39187;48.476;8.310;2024-02-26T00:27:53;89418.78;;;3.56;88.07
53300;BME280;39187;48.476;8.310;2024-02-26T00:30:19;89413.63;;;3.20;99.18
53300;BME280;39187;48.476;8.310;2024-02-26T00:32:45;89411.84;;;3.17;100.00
53300;BME280;39187;48.476;8.310;2024-02-26T00:35:11;89405.75;;;3.04;100.00
53300;BME280;39187;48.476;8.310;2024-02-26T00:37:36;89407.13;;;2.76;100.00
53300;BME280;39187;48.476;8.310;2024-02-26T00:40:02;89415.16;;;2.69;100.00
53300;BME280;39187;48.476;8.310;2024-02-26T00:42:28;89415.47;;;2.55;100.00
53300;BME280;39187;48.476;8.310;2024-02-26T00:44:53;89414.06;;;2.51;100.00
53300;BME280;39187;48.476;8.310;2024-02-26T00:47:19;89410.38;;;2.48;100.00
53300;BME280;39187;48.476;8.310;2024-02-26T00:49:45;89414.94;;;2.44;100.00
53300;BME280;39187;48.476;8.310;2024-02-26T00:52:10;89405.59;;;2.43;100.00
53300;BME280;39187;48.476;8.310;2024-02-26T00:54:36;89405.78;;;2.52;100.00
53300;BME280;39187;48.476;8.310;2024-02-26T00:57:02;89400.88;;;2.54;100.00
53300;BME280;39187;48.476;8.310;2024-02-26T00:59:27;89412.00;;;2.42;100.00
53300;BME280;39187;48.476;8.310;2024-02-26T01:01:53;89415.56;;;2.32;100.00
53300;BME280;39187;48.476;8.310;2024-02-26T01:04:18;89407.03;;;2.28;100.00
53300;BME280;39187;48.476;8.310;2024-02-26T01:06:44;89401.69;;;2.31;100.00
53300;BME280;39187;48.476;8.310;2024-02-26T01:09:09;89406.38;;;2.24;100.00
53300;BME280;39187;48.476;8.310;2024-02-26T01:11:35;89407.50;;;2.23;100.00
53300;BME280;39187;48.476;8.310;2024-02-26T01:14:01;89417.06;;;2.13;100.00
53300;BME280;39187;48.476;8.310;2024-02-26T01:16:27;89413.03;;;2.09;100.00
53300;BME280;39187;48.476;8.310;2024-02-26T01:18:54;89407.13;;;2.05;100.00
53300;BME280;39187;48.476;8.310;2024-02-26T01:21:19;89403.69;;;1.88;100.00
53300;BME280;39187;48.476;8.310;2024-02-26T01:23:45;89414.16;;;1.88;100.00
53300;BME280;39187;48.476;8.310;2024-02-26T01:26:11;89411.91;;;1.90;100.00
53300;BME280;39187;48.476;8.310;2024-02-26T01:28:36;89411.81;;;1.74;100.00
53300;BME280;39187;48.476;8.310;2024-02-26T01:31:02;89408.66;;;1.63;100.00
53300;BME280;39187;48.476;8.310;2024-02-26T01:33:30;89407.00;;;1.49;100.00
53300;BME280;39187;48.476;8.310;2024-02-26T01:35:55;89417.56;;;1.45;100.00
53300;BME280;39187;48.476;8.310;2024-02-26T01:38:21;89406.97;;;1.29;100.00
53300;BME280;39187;48.476;8.310;2024-02-26T01:40:46;89413.50;;;1.21;100.00
53300;BME280;39187;48.476;8.310;2024-02-26T01:43:12;89409.88;;;1.11;100.00
53300;BME280;39187;48.476;8.310;2024-02-26T01:45:37;89410.81;;;1.01;100.00
53300;BME280;39187;48.476;8.310;2024-02-26T01:48:03;89415.75;;;0.96;100.00
53300;BME280;39187;48.476;8.310;2024-02-26T01:50:28;89412.16;;;0.86;100.00
53300;BME280;39187;48.476;8.310;2024-02-26T01:52:55;89415.50;;;0.87;100.00
53300;BME280;39187;48.476;8.310;2024-02-26T01:55:22;89405.78;;;0.87;100.00
53300;BME280;39187;48.476;8.310;2024-02-26T01:57:50;89410.66;;;0.85;100.00
53300;BME280;39187;48.476;8.310;2024-02-26T02:00:18;89406.97;;;0.83;100.00
53300;BME280;39187;48.476;8.310;2024-02-26T02:02:44;89410.66;;;0.85;100.00
53300;BME280;39187;48.476;8.310;2024-02-26T02:05:12;89407.31;;;0.85;100.00
53300;BME280;39187;48.476;8.310;2024-02-26T02:07:40;89406.16;;;0.86;100.00
53300;BME280;39187;48.476;8.310;2024-02-26T02:10:06;89398.38;;;0.82;100.00
53300;BME280;39187;48.476;8.310;2024-02-26T02:12:32;89403.94;;;0.84;100.00
53300;BME280;39187;48.476;8.310;2024-02-26T02:15:00;89394.56;;;0.87;100.00
53300;BME280;39187;48.476;8.310;2024-02-26T02:17:26;89399.06;;;0.86;100.00
53300;BME280;39187;48.476;8.310;2024-02-26T02:19:52;89389.31;;;0.87;100.00
53300;BME280;39187;48.476;8.310;2024-02-26T02:22:18;89388.88;;;0.92;100.00
53300;BME280;39187;48.476;8.310;2024-02-26T02:24:44;89392.88;;;1.00;100.00
53300;BME280;39187;48.476;8.310;2024-02-26T02:27:10;89390.25;;;1.00;100.00
53300;BME280;39187;48.476;8.310;2024-02-26T02:29:36;89391.66;;;1.04;100.00
53300;BME280;39187;48.476;8.310;2024-02-26T02:32:03;89384.91;;;1.07;100.00
53300;BME280;39187;48.476;8.310;2024-02-26T02:34:31;89384.25;;;1.23;100.00
53300;BME280;39187;48.476;8.310;2024-02-26T02:36:57;89382.38;;;1.23;100.00
53300;BME280;39187;48.476;8.310;2024-02-26T02:39:22;89388.13;;;1.14;100.00
53300;BME280;39187;48.476;8.310;2024-02-26T02:41:48;89382.03;;;1.21;100.00
53300;BME280;39187;48.476;8.310;2024-02-26T02:44:13;89380.50;;;1.24;100.00
53300;BME280;39187;48.476;8.310;2024-02-26T02:46:39;89384.88;;;1.30;100.00
53300;BME280;39187;48.476;8.310;2024-02-26T02:49:08;89378.38;;;1.38;100.00
53300;BME280;39187;48.476;8.310;2024-02-26T02:51:35;89358.75;;;1.27;100.00
53300;BME280;39187;48.476;8.310;2024-02-26T02:54:00;89370.34;;;1.26;100.00
53300;BME280;39187;48.476;8.310;2024-02-26T02:56:26;89375.88;;;1.31;100.00
53300;BME280;39187;48.476;8.310;2024-02-26T02:58:51;89368.28;;;1.37;100.00
53300;BME280;39187;48.476;8.310;2024-02-26T03:01:17;89371.13;;;1.46;100.00
53300;BME280;39187;48.476;8.310;2024-02-26T03:03:42;89359.28;;;1.38;100.00
53300;BME280;39187;48.476;8.310;2024-02-26T03:06:08;89363.94;;;1.50;100.00
53300;BME280;39187;48.476;8.310;2024-02-26T03:08:33;89356.47;;;1.48;100.00
53300;BME280;39187;48.476;8.310;2024-02-26T03:11:02;89354.13;;;1.74;100.00
53300;BME280;39187;48.476;8.310;2024-02-26T03:13:27;89366.91;;;1.72;100.00
53300;BME280;39187;48.476;8.310;2024-02-26T03:15:53;89372.59;;;1.86;100.00
53300;BME280;39187;48.476;8.310;2024-02-26T03:18:18;89372.56;;;1.90;100.00
53300;BME280;39187;48.476;8.310;2024-02-26T03:20:44;89366.09;;;1.75;100.00
53300;BME280;39187;48.476;8.310;2024-02-26T03:23:09;89361.06;;;1.84;100.00
53300;BME280;39187;48.476;8.310;2024-02-26T03:25:38;89353.06;;;1.91;100.00
53300;BME280;39187;48.476;8.310;2024-02-26T03:28:04;89358.69;;;1.89;100.00
53300;BME280;39187;48.476;8.310;2024-02-26T03:30:29;89354.66;;;1.85;100.00
53300;BME280;39187;48.476;8.310;2024-02-26T03:32:55;89356.00;;;1.93;100.00
53300;BME280;39187;48.476;8.310;2024-02-26T03:35:20;89353.09;;;1.87;100.00
53300;BME280;39187;48.476;8.310;2024-02-26T03:37:46;89360.09;;;1.94;100.00
53300;BME280;39187;48.476;8.310;2024-02-26T03:40:13;89353.19;;;1.84;100.00
53300;BME280;39187;48.476;8.310;2024-02-26T03:42:39;89356.13;;;1.86;100.00
53300;BME280;39187;48.476;8.310;2024-02-26T03:45:06;89360.50;;;1.92;100.00
53300;BME280;39187;48.476;8.310;2024-02-26T03:47:31;89356.28;;;1.79;100.00
53300;BME280;39187;48.476;8.310;2024-02-26T03:49:57;89357.59;;;1.87;100.00
53300;BME280;39187;48.476;8.310;2024-02-26T03:52:24;89355.88;;;1.80;100.00
53300;BME280;39187;48.476;8.310;2024-02-26T03:54:49;89353.59;;;1.82;100.00
53300;BME280;39187;48.476;8.310;2024-02-26T03:57:15;89356.34;;;1.75;100.00
53300;BME280;39187;48.476;8.310;2024-02-26T03:59:41;89351.19;;;1.72;100.00
53300;BME280;39187;48.476;8.310;2024-02-26T04:02:06;89355.69;;;1.71;100.00
53300;BME280;39187;48.476;8.310;2024-02-26T04:04:34;89355.00;;;1.67;100.00
53300;BME280;39187;48.476;8.310;2024-02-26T04:07:00;89360.31;;;1.64;100.00
53300;BME280;39187;48.476;8.310;2024-02-26T04:09:25;89351.72;;;1.63;100.00
53300;BME280;39187;48.476;8.310;2024-02-26T04:11:51;89354.41;;;1.59;100.00
53300;BME280;39187;48.476;8.310;2024-02-26T04:14:16;89351.03;;;1.59;100.00
53300;BME280;39187;48.476;8.310;2024-02-26T04:16:42;89353.09;;;1.68;100.00
53300;BME280;39187;48.476;8.310;2024-02-26T04:19:07;89348.28;;;1.66;100.00
53300;BME280;39187;48.476;8.310;2024-02-26T04:21:33;89361.78;;;1.65;100.00
53300;BME280;39187;48.476;8.310;2024-02-26T04:23:59;89373.78;;;1.66;100.00
53300;BME280;39187;48.476;8.310;2024-02-26T04:26:28;89370.06;;;1.63;100.00
53300;BME280;39187;48.476;8.310;2024-02-26T04:28:54;89375.66;;;1.65;100.00
53300;BME280;39187;48.476;8.310;2024-02-26T04:31:19;89383.69;;;1.74;100.00
53300;BME280;39187;48.476;8.310;2024-02-26T04:33:45;89371.81;;;1.70;100.00
53300;BME280;39187;48.476;8.310;2024-02-26T04:36:14;89375.66;;;1.65;100.00
53300;BME280;39187;48.476;8.310;2024-02-26T04:38:46;89386.94;;;1.62;100.00
53300;BME280;39187;48.476;8.310;2024-02-26T04:41:11;89386.59;;;1.60;100.00
53300;BME280;39187;48.476;8.310;2024-02-26T04:43:38;89388.19;;;1.54;100.00
53300;BME280;39187;48.476;8.310;2024-02-26T04:46:09;89387.28;;;1.64;100.00
53300;BME280;39187;48.476;8.310;2024-02-26T04:48:38;89390.38;;;1.59;100.00
53300;BME280;39187;48.476;8.310;2024-02-26T04:51:04;89386.19;;;1.61;100.00
53300;BME280;39187;48.476;8.310;2024-02-26T04:53:30;89386.06;;;1.69;100.00
53300;BME280;39187;48.476;8.310;2024-02-26T04:55:55;89392.78;;;1.70;100.00
53300;BME280;39187;48.476;8.310;2024-02-26T04:58:21;89385.72;;;1.67;100.00
53300;BME280;39187;48.476;8.310;2024-02-26T05:00:46;89392.91;;;1.63;100.00
53300;BME280;39187;48.476;8.310;2024-02-26T05:03:12;89388.06;;;1.61;100.00
53300;BME280;39187;48.476;8.310;2024-02-26T05:05:43;89393.72;;;1.59;100.00
53300;BME280;39187;48.476;8.310;2024-02-26T05:08:08;89381.88;;;1.51;100.00
53300;BME280;39187;48.476;8.310;2024-02-26T05:10:34;89388.63;;;1.52;100.00
53300;BME280;39187;48.476;8.310;2024-02-26T05:13:04;89385.88;;;1.59;100.00
53300;BME280;39187;48.476;8.310;2024-02-26T05:15:30;89393.25;;;1.65;100.00
53300;BME280;39187;48.476;8.310;2024-02-26T05:17:55;89394.28;;;1.71;100.00
53300;BME280;39187;48.476;8.310;2024-02-26T05:20:21;89388.69;;;1.69;100.00
53300;BME280;39187;48.476;8.310;2024-02-26T05:22:46;89391.44;;;1.81;100.00
53300;BME280;39187;48.476;8.310;2024-02-26T05:25:15;89384.25;;;1.85;100.00
53300;BME280;39187;48.476;8.310;2024-02-26T05:27:41;89382.91;;;1.77;100.00
53300;BME280;39187;48.476;8.310;2024-02-26T05:30:07;89385.72;;;1.86;100.00
53300;BME280;39187;48.476;8.310;2024-02-26T05:32:33;89388.34;;;1.86;100.00
53300;BME280;39187;48.476;8.310;2024-02-26T05:34:58;89389.78;;;1.91;100.00
53300;BME280;39187;48.476;8.310;2024-02-26T05:37:24;89395.75;;;1.91;100.00
53300;BME280;39187;48.476;8.310;2024-02-26T05:39:49;89391.91;;;1.96;100.00
53300;BME280;39187;48.476;8.310;2024-02-26T05:42:15;89380.47;;;1.86;100.00
53300;BME280;39187;48.476;8.310;2024-02-26T05:44:40;89400.53;;;1.96;100.00
53300;BME280;39187;48.476;8.310;2024-02-26T05:47:06;89399.31;;;2.01;100.00
53300;BME280;39187;48.476;8.310;2024-02-26T05:49:31;89397.44;;;2.01;100.00
53300;BME280;39187;48.476;8.310;2024-02-26T05:51:57;89404.16;;;2.03;100.00
53300;BME280;39187;48.476;8.310;2024-02-26T05:54:23;89396.69;;;2.01;100.00
53300;BME280;39187;48.476;8.310;2024-02-26T05:56:49;89408.19;;;2.07;100.00
53300;BME280;39187;48.476;8.310;2024-02-26T05:59:14;89406.56;;;2.13;100.00
53300;BME280;39187;48.476;8.310;2024-02-26T06:01:41;89408.03;;;2.14;100.00
53300;BME280;39187;48.476;8.310;2024-02-26T06:04:07;89412.91;;;2.16;100.00
53300;BME280;39187;48.476;8.310;2024-02-26T06:06:32;89410.75;;;2.11;100.00
53300;BME280;39187;48.476;8.310;2024-02-26T06:08:57;89413.78;;;2.09;100.00
53300;BME280;39187;48.476;8.310;2024-02-26T06:11:23;89417.88;;;2.10;100.00
53300;BME280;39187;48.476;8.310;2024-02-26T06:13:48;89425.06;;;2.06;100.00
53300;BME280;39187;48.476;8.310;2024-02-26T06:16:14;89422.38;;;2.10;100.00
53300;BME280;39187;48.476;8.310;2024-02-26T06:18:39;89420.09;;;2.12;100.00
53300;BME280;39187;48.476;8.310;2024-02-26T06:21:09;89427.63;;;2.10;100.00
53300;BME280;39187;48.476;8.310;2024-02-26T06:23:35;89430.44;;;2.19;100.00
53300;BME280;39187;48.476;8.310;2024-02-26T06:26:01;89443.91;;;2.21;100.00
53300;BME280;39187;48.476;8.310;2024-02-26T06:28:26;89447.50;;;2.30;100.00
53300;BME280;39187;48.476;8.310;2024-02-26T06:30:55;89448.88;;;2.35;100.00
53300;BME280;39187;48.476;8.310;2024-02-26T06:33:21;89448.41;;;2.20;100.00
53300;BME280;39187;48.476;8.310;2024-02-26T06:35:46;89447.75;;;2.16;100.00
53300;BME280;39187;48.476;8.310;2024-02-26T06:38:12;89455.63;;;2.16;100.00
53300;BME280;39187;48.476;8.310;2024-02-26T06:40:39;89459.88;;;2.10;100.00
53300;BME280;39187;48.476;8.310;2024-02-26T06:43:05;89460.00;;;2.23;100.00
53300;BME280;39187;48.476;8.310;2024-02-26T06:45:30;89464.03;;;2.27;100.00
53300;BME280;39187;48.476;8.310;2024-02-26T06:47:56;89462.41;;;2.33;100.00
53300;BME280;39187;48.476;8.310;2024-02-26T06:50:22;89467.19;;;2.19;100.00
53300;BME280;39187;48.476;8.310;2024-02-26T06:52:47;89468.28;;;2.21;100.00
53300;BME280;39187;48.476;8.310;2024-02-26T06:55:13;89466.13;;;2.16;100.00
53300;BME280;39187;48.476;8.310;2024-02-26T06:57:38;89467.41;;;2.28;100.00
53300;BME280;39187;48.476;8.310;2024-02-26T07:00:04;89469.63;;;2.29;100.00
53300;BME280;39187;48.476;8.310;2024-02-26T07:02:30;89463.56;;;2.32;100.00
53300;BME280;39187;48.476;8.310;2024-02-26T07:04:56;89468.00;;;2.35;100.00
53300;BME280;39187;48.476;8.310;2024-02-26T07:07:23;89468.81;;;2.32;100.00
53300;BME280;39187;48.476;8.310;2024-02-26T07:09:49;89477.06;;;2.31;100.00
53300;BME280;39187;48.476;8.310;2024-02-26T07:12:15;89471.44;;;2.32;100.00
53300;BME280;39187;48.476;8.310;2024-02-26T07:14:41;89466.00;;;2.23;100.00
53300;BME280;39187;48.476;8.310;2024-02-26T07:17:07;89467.78;;;2.26;100.00
53300;BME280;39187;48.476;8.310;2024-02-26T07:19:34;89459.88;;;2.30;100.00
53300;BME280;39187;48.476;8.310;2024-02-26T07:21:59;89463.03;;;2.41;100.00
53300;BME280;39187;48.476;8.310;2024-02-26T07:24:27;89460.25;;;2.48;100.00
53300;BME280;39187;48.476;8.310;2024-02-26T07:26:53;89466.09;;;2.56;100.00
53300;BME280;39187;48.476;8.310;2024-02-26T07:29:20;89465.47;;;2.68;100.00
53300;BME280;39187;48.476;8.310;2024-02-26T07:31:46;89456.06;;;2.87;100.00
53300;BME280;39187;48.476;8.310;2024-02-26T07:34:12;89466.34;;;2.81;100.00
53300;BME280;39187;48.476;8.310;2024-02-26T07:36:38;89466.00;;;2.79;100.00
53300;BME280;39187;48.476;8.310;2024-02-26T07:39:04;89470.53;;;2.95;100.00
53300;BME280;39187;48.476;8.310;2024-02-26T07:41:29;89464.94;;;2.93;100.00
53300;BME280;39187;48.476;8.310;2024-02-26T07:43:55;89476.13;;;2.97;100.00
53300;BME280;39187;48.476;8.310;2024-02-26T07:46:20;89468.63;;;2.95;100.00
53300;BME280;39187;48.476;8.310;2024-02-26T07:48:45;89471.28;;;3.11;100.00
53300;BME280;39187;48.476;8.310;2024-02-26T07:51:14;89474.41;;;3.22;100.00
53300;BME280;39187;48.476;8.310;2024-02-26T07:53:40;89479.53;;;3.30;100.00
53300;BME280;39187;48.476;8.310;2024-02-26T07:56:06;89481.00;;;3.31;100.00
53300;BME280;39187;48.476;8.310;2024-02-26T07:58:35;89475.06;;;3.59;100.00
53300;BME280;39187;48.476;8.310;2024-02-26T08:01:01;89481.31;;;3.65;100.00
53300;BME280;39187;48.476;8.310;2024-02-26T08:03:26;89485.44;;;3.50;100.00
53300;BME280;39187;48.476;8.310;2024-02-26T08:05:52;89487.66;;;3.51;100.00
53300;BME280;39187;48.476;8.310;2024-02-26T08:08:18;89481.75;;;3.63;100.00
53300;BME280;39187;48.476;8.310;2024-02-26T08:10:43;89485.59;;;3.43;100.00
53300;BME280;39187;48.476;8.310;2024-02-26T08:13:09;89492.00;;;3.74;100.00
53300;BME280;39187;48.476;8.310;2024-02-26T08:15:35;89492.09;;;3.71;100.00
53300;BME280;39187;48.476;8.310;2024-02-26T08:18:03;89488.47;;;3.81;100.00
53300;BME280;39187;48.476;8.310;2024-02-26T08:20:32;89485.03;;;3.51;100.00
53300;BME280;39187;48.476;8.310;2024-02-26T08:22:57;89490.59;;;3.53;100.00
53300;BME280;39187;48.476;8.310;2024-02-26T08:25:24;89484.94;;;3.55;100.00
53300;BME280;39187;48.476;8.310;2024-02-26T08:27:49;89495.22;;;3.66;100.00
53300;BME280;39187;48.476;8.310;2024-02-26T08:30:16;89497.53;;;3.63;100.00
53300;BME280;39187;48.476;8.310;2024-02-26T08:32:47;89509.44;;;3.68;100.00
53300;BME280;39187;48.476;8.310;2024-02-26T08:35:13;89504.25;;;3.81;100.00
53300;BME280;39187;48.476;8.310;2024-02-26T08:37:38;89494.75;;;3.99;100.00
53300;BME280;39187;48.476;8.310;2024-02-26T08:40:05;89510.09;;;4.17;100.00
53300;BME280;39187;48.476;8.310;2024-02-26T08:42:31;89505.91;;;4.49;100.00
53300;BME280;39187;48.476;8.310;2024-02-26T08:44:57;89504.06;;;4.62;100.00
53300;BME280;39187;48.476;8.310;2024-02-26T08:47:25;89516.91;;;5.01;100.00
53300;BME280;39187;48.476;8.310;2024-02-26T08:49:51;89510.41;;;5.18;100.00
53300;BME280;39187;48.476;8.310;2024-02-26T08:52:16;89519.03;;;5.44;100.00
53300;BME280;39187;48.476;8.310;2024-02-26T08:54:42;89529.81;;;5.50;100.00
53300;BME280;39187;48.476;8.310;2024-02-26T08:57:07;89528.00;;;5.47;100.00
53300;BME280;39187;48.476;8.310;2024-02-26T08:59:33;89526.22;;;5.31;100.00
53300;BME280;39187;48.476;8.310;2024-02-26T09:01:58;89529.91;;;5.34;100.00
53300;BME280;39187;48.476;8.310;2024-02-26T09:04:24;89524.97;;;5.48;100.00
53300;BME280;39187;48.476;8.310;2024-02-26T09:06:49;89526.22;;;5.69;100.00
53300;BME280;39187;48.476;8.310;2024-02-26T09:09:14;89517.44;;;5.59;100.00
53300;BME280;39187;48.476;8.310;2024-02-26T09:11:40;89518.72;;;5.80;100.00
53300;BME280;39187;48.476;8.310;2024-02-26T09:14:05;89511.09;;;5.82;100.00
53300;BME280;39187;48.476;8.310;2024-02-26T09:16:31;89514.34;;;6.12;100.00
53300;BME280;39187;48.476;8.310;2024-02-26T09:18:57;89522.84;;;6.28;100.00
53300;BME280;39187;48.476;8.310;2024-02-26T09:21:22;89526.94;;;6.42;100.00
53300;BME280;39187;48.476;8.310;2024-02-26T09:23:50;89518.94;;;6.33;100.00
53300;BME280;39187;48.476;8.310;2024-02-26T09:26:16;89526.22;;;6.29;100.00
53300;BME280;39187;48.476;8.310;2024-02-26T09:28:42;89519.63;;;6.46;100.00
53300;BME280;39187;48.476;8.310;2024-02-26T09:31:08;89523.88;;;6.43;100.00
53300;BME280;39187;48.476;8.310;2024-02-26T09:33:34;89522.34;;;6.55;100.00
53300;BME280;39187;48.476;8.310;2024-02-26T09:35:59;89512.34;;;6.72;100.00
53300;BME280;39187;48.476;8.310;2024-02-26T09:38:29;89519.81;;;6.73;100.00
53300;BME280;39187;48.476;8.310;2024-02-26T09:40:58;89513.94;;;6.69;100.00
53300;BME280;39187;48.476;8.310;2024-02-26T09:43:27;89525.31;;;6.57;100.00
53300;BME280;39187;48.476;8.310;2024-02-26T09:45:59;89533.78;;;6.18;100.00
53300;BME280;39187;48.476;8.310;2024-02-26T09:48:24;89544.56;;;5.85;100.00
53300;BME280;39187;48.476;8.310;2024-02-26T09:50:51;89545.53;;;5.91;100.00
53300;BME280;39187;48.476;8.310;2024-02-26T09:53:18;89549.00;;;6.14;100.00
53300;BME280;39187;48.476;8.310;2024-02-26T09:55:44;89555.13;;;6.11;100.00
53300;BME280;39187;48.476;8.310;2024-02-26T09:58:10;89560.31;;;6.14;100.00
53300;BME280;39187;48.476;8.310;2024-02-26T10:00:39;89559.34;;;6.08;100.00
53300;BME280;39187;48.476;8.310;2024-02-26T10:03:09;89568.91;;;6.27;100.00
53300;BME280;39187;48.476;8.310;2024-02-26T10:05:39;89567.81;;;6.50;100.00
53300;BME280;39187;48.476;8.310;2024-02-26T10:08:08;89565.75;;;6.67;100.00
53300;BME280;39187;48.476;8.310;2024-02-26T10:10:34;89575.41;;;7.04;100.00
53300;BME280;39187;48.476;8.310;2024-02-26T10:13:01;89571.25;;;7.16;100.00
53300;BME280;39187;48.476;8.310;2024-02-26T10:15:28;89570.22;;;7.13;100.00
53300;BME280;39187;48.476;8.310;2024-02-26T10:17:53;89574.56;;;7.29;100.00
53300;BME280;39187;48.476;8.310;2024-02-26T10:20:19;89573.28;;;7.34;100.00
53300;BME280;39187;48.476;8.310;2024-02-26T10:22:50;89576.53;;;7.69;100.00
53300;BME280;39187;48.476;8.310;2024-02-26T10:25:16;89574.78;;;7.44;100.00
53300;BME280;39187;48.476;8.310;2024-02-26T10:27:42;89572.13;;;7.44;100.00
53300;BME280;39187;48.476;8.310;2024-02-26T10:30:21;89573.06;;;7.81;100.00
53300;BME280;39187;48.476;8.310;2024-02-26T10:32:48;89577.34;;;7.87;100.00
53300;BME280;39187;48.476;8.310;2024-02-26T10:35:15;89571.22;;;7.99;100.00
53300;BME280;39187;48.476;8.310;2024-02-26T10:37:41;89572.88;;;8.06;100.00
53300;BME280;39187;48.476;8.310;2024-02-26T10:40:14;89572.28;;;8.11;100.00
53300;BME280;39187;48.476;8.310;2024-02-26T10:42:41;89576.41;;;8.12;100.00
53300;BME280;39187;48.476;8.310;2024-02-26T10:45:08;89585.94;;;8.00;100.00
53300;BME280;39187;48.476;8.310;2024-02-26T10:47:37;89589.41;;;7.88;100.00
53300;BME280;39187;48.476;8.310;2024-02-26T10:50:05;89597.88;;;7.43;100.00
53300;BME280;39187;48.476;8.310;2024-02-26T10:52:35;89595.78;;;7.38;100.00
53300;BME280;39187;48.476;8.310;2024-02-26T10:55:02;89604.28;;;7.11;100.00
53300;BME280;39187;48.476;8.310;2024-02-26T10:57:50;89595.19;;;7.12;100.00
53300;BME280;39187;48.476;8.310;2024-02-26T11:00:16;89597.19;;;7.52;100.00
53300;BME280;39187;48.476;8.310;2024-02-26T11:02:44;89606.63;;;7.53;100.00
53300;BME280;39187;48.476;8.310;2024-02-26T11:05:11;89612.41;;;7.17;100.00
53300;BME280;39187;48.476;8.310;2024-02-26T11:07:37;89609.50;;;7.24;100.00
53300;BME280;39187;48.476;8.310;2024-02-26T11:10:04;89615.84;;;7.05;100.00
53300;BME280;39187;48.476;8.310;2024-02-26T11:12:32;89621.25;;;7.01;100.00
53300;BME280;39187;48.476;8.310;2024-02-26T11:14:59;89620.88;;;7.12;100.00
53300;BME280;39187;48.476;8.310;2024-02-26T11:17:28;89616.47;;;7.09;100.00
53300;BME280;39187;48.476;8.310;2024-02-26T11:19:57;89620.16;;;7.11;100.00
53300;BME280;39187;48.476;8.310;2024-02-26T11:22:28;89613.28;;;6.79;100.00
53300;BME280;39187;48.476;8.310;2024-02-26T11:24:55;89628.00;;;6.80;100.00
53300;BME280;39187;48.476;8.310;2024-02-26T11:27:26;89624.00;;;6.98;100.00
53300;BME280;39187;48.476;8.310;2024-02-26T11:29:56;89631.94;;;6.98;100.00
53300;BME280;39187;48.476;8.310;2024-02-26T11:32:29;89629.34;;;6.85;100.00
53300;BME280;39187;48.476;8.310;2024-02-26T11:34:56;89632.63;;;6.89;100.00
53300;BME280;39187;48.476;8.310;2024-02-26T11:37:23;89639.66;;;7.05;100.00
53300;BME280;39187;48.476;8.310;2024-02-26T11:39:51;89630.88;;;7.08;100.00
53300;BME280;39187;48.476;8.310;2024-02-26T11:42:17;89630.16;;;6.95;100.00
53300;BME280;39187;48.476;8.310;2024-02-26T11:44:43;89632.44;;;6.83;100.00
53300;BME280;39187;48.476;8.310;2024-02-26T11:47:19;89630.72;;;7.11;100.00
53300;BME280;39187;48.476;8.310;2024-02-26T11:49:45;89630.59;;;6.93;100.00
53300;BME280;39187;48.476;8.310;2024-02-26T11:52:11;89627.44;;;7.20;100.00
53300;BME280;39187;48.476;8.310;2024-02-26T11:54:52;89625.63;;;7.39;100.00
53300;BME280;39187;48.476;8.310;2024-02-26T11:57:30;89617.06;;;7.56;100.00
53300;BME280;39187;48.476;8.310;2024-02-26T12:02:49;89610.50;;;7.61;100.00
53300;BME280;39187;48.476;8.310;2024-02-26T12:05:17;89613.00;;;7.64;100.00
53300;BME280;39187;48.476;8.310;2024-02-26T12:08:08;89617.75;;;7.48;100.00
53300;BME280;39187;48.476;8.310;2024-02-26T12:10:35;89609.84;;;7.79;100.00
53300;BME280;39187;48.476;8.310;2024-02-26T12:13:16;89608.28;;;7.38;100.00
53300;BME280;39187;48.476;8.310;2024-02-26T12:15:46;89609.44;;;7.58;100.00
53300;BME280;39187;48.476;8.310;2024-02-26T12:18:20;89617.03;;;7.25;100.00
53300;BME280;39187;48.476;8.310;2024-02-26T12:20:46;89620.44;;;7.57;100.00
53300;BME280;39187;48.476;8.310;2024-02-26T12:23:15;89626.50;;;7.57;100.00
53300;BME280;39187;48.476;8.310;2024-02-26T12:25:44;89621.47;;;7.81;100.00
53300;BME280;39187;48.476;8.310;2024-02-26T12:28:14;89629.13;;;7.57;100.00
53300;BME280;39187;48.476;8.310;2024-02-26T12:30:39;89627.81;;;7.84;100.00
53300;BME280;39187;48.476;8.310;2024-02-26T12:33:05;89628.59;;;7.93;100.00
53300;BME280;39187;48.476;8.310;2024-02-26T12:35:32;89629.38;;;7.72;100.00
53300;BME280;39187;48.476;8.310;2024-02-26T12:37:58;89630.59;;;7.80;100.00
53300;BME280;39187;48.476;8.310;2024-02-26T12:40:24;89634.84;;;7.78;100.00
53300;BME280;39187;48.476;8.310;2024-02-26T12:42:49;89631.28;;;8.02;100.00
53300;BME280;39187;48.476;8.310;2024-02-26T12:45:15;89625.13;;;8.15;100.00
53300;BME280;39187;48.476;8.310;2024-02-26T12:47:45;89623.38;;;8.12;100.00
53300;BME280;39187;48.476;8.310;2024-02-26T12:50:11;89631.34;;;8.21;100.00
53300;BME280;39187;48.476;8.310;2024-02-26T12:52:43;89634.53;;;8.37;100.00
53300;BME280;39187;48.476;8.310;2024-02-26T12:55:09;89637.94;;;8.47;100.00
53300;BME280;39187;48.476;8.310;2024-02-26T12:57:38;89637.75;;;8.32;100.00
53300;BME280;39187;48.476;8.310;2024-02-26T13:00:07;89635.31;;;8.16;100.00